Time;durP1;ratioP1;P1;durP2;ratioP2;P2;SDS_P1;SDS_P2;PMS_P1;PMS_P2;Temp;Humidity;BMP_temperature;BMP_pressure;BME280_temperature;BME280_humidity;BME280_pressure;Samples;Min_cycle;Max_cycle;Signal;HPM_P1;HPM_P2
2022/04/06 00:01:43;;;;;;;7.83;6.73;;;10.40;99.90;;;;;;5011976;28;20197;-84
2022/04/06 00:04:09;;;;;;;7.70;6.80;;;10.40;99.90;;;;;;5004076;28;20256;-86
2022/04/06 00:06:34;;;;;;;7.53;6.80;;;10.40;99.90;;;;;;5005925;28;20681;-87
2022/04/06 00:09:00;;;;;;;7.30;6.70;;;10.40;99.90;;;;;;5010433;28;20295;-84
2022/04/06 00:11:26;;;;;;;7.30;6.70;;;10.50;99.90;;;;;;5001568;28;20189;-87
2022/04/06 00:13:51;;;;;;;7.53;6.83;;;10.50;99.90;;;;;;5003796;28;20592;-84
2022/04/06 00:16:17;;;;;;;7.33;6.63;;;10.50;99.90;;;;;;5005446;28;20231;-85
2022/04/06 00:18:43;;;;;;;7.70;7.03;;;10.40;99.90;;;;;;5001676;28;20276;-85
2022/04/06 00:21:10;;;;;;;7.50;6.80;;;10.50;99.90;;;;;;5006217;28;20190;-85
2022/04/06 00:23:36;;;;;;;6.53;5.93;;;10.40;99.90;;;;;;5006194;28;20193;-85
2022/04/06 00:26:02;;;;;;;6.87;6.27;;;10.40;99.90;;;;;;5004074;28;20256;-85
2022/04/06 00:28:28;;;;;;;7.33;6.67;;;10.50;99.90;;;;;;5004982;28;20210;-85
2022/04/06 00:30:54;;;;;;;7.30;6.63;;;10.40;99.90;;;;;;5002652;28;20194;-84
2022/04/06 00:33:19;;;;;;;7.33;6.67;;;10.30;99.90;;;;;;5006644;28;20198;-85
2022/04/06 00:35:45;;;;;;;7.93;6.70;;;10.30;99.90;;;;;;5006105;28;20255;-85
2022/04/06 00:38:11;;;;;;;7.47;6.77;;;10.30;99.90;;;;;;5001986;28;20249;-85
2022/04/06 00:40:37;;;;;;;7.37;6.73;;;10.20;99.90;;;;;;5005181;28;20226;-84
2022/04/06 00:43:12;;;;;;;7.40;6.80;;;10.20;99.90;;;;;;5008925;28;20182;-85
2022/04/06 00:45:39;;;;;;;7.33;6.63;;;10.20;99.90;;;;;;5005435;28;20277;-85
2022/04/06 00:48:05;;;;;;;7.07;6.47;;;10.30;99.90;;;;;;5007559;28;20209;-84
2022/04/06 00:50:32;;;;;;;6.73;6.23;;;10.20;99.90;;;;;;5010832;28;20201;-85
2022/04/06 00:52:58;;;;;;;7.23;6.53;;;10.30;99.90;;;;;;5007853;28;20205;-85
2022/04/06 00:55:33;;;;;;;6.83;6.13;;;10.30;99.90;;;;;;5008282;28;20221;-85
2022/04/06 00:57:59;;;;;;;7.33;6.70;;;10.20;99.90;;;;;;5004484;28;20271;-83
2022/04/06 01:00:25;;;;;;;7.63;6.93;;;10.20;99.90;;;;;;5004582;28;20182;-85
2022/04/06 01:02:52;;;;;;;7.87;7.07;;;10.20;99.90;;;;;;5008001;28;20190;-84
2022/04/06 01:05:18;;;;;;;7.37;6.77;;;10.30;99.90;;;;;;5011627;28;20661;-85
2022/04/06 01:07:49;;;;;;;7.00;6.40;;;10.20;99.90;;;;;;5010751;28;20213;-85
2022/04/06 01:10:15;;;;;;;7.10;6.40;;;10.20;99.90;;;;;;5002217;28;20194;-84
2022/04/06 01:12:41;;;;;;;6.60;6.00;;;10.30;99.90;;;;;;5011124;28;20202;-85
2022/04/06 01:15:07;;;;;;;7.17;6.53;;;10.20;99.90;;;;;;5009889;28;20290;-85
2022/04/06 01:17:35;;;;;;;6.73;6.03;;;10.10;99.90;;;;;;5003689;28;20230;-85
2022/04/06 01:20:02;;;;;;;7.43;6.73;;;10.30;99.90;;;;;;5007965;28;20182;-85
2022/04/06 01:22:28;;;;;;;6.93;6.33;;;10.30;99.90;;;;;;5008181;28;20193;-85
2022/04/06 01:24:54;;;;;;;6.67;6.10;;;10.20;99.90;;;;;;5011125;28;20214;-85
2022/04/06 01:27:20;;;;;;;7.37;6.67;;;10.20;99.90;;;;;;5007521;28;20221;-86
2022/04/06 01:29:47;;;;;;;6.63;6.03;;;10.20;99.90;;;;;;5012166;28;20197;-85
2022/04/06 01:32:17;;;;;;;7.73;6.07;;;10.10;99.90;;;;;;5010081;28;20213;-84
2022/04/06 01:34:44;;;;;;;7.47;6.80;;;10.10;99.90;;;;;;5008269;28;20204;-85
2022/04/06 01:37:12;;;;;;;6.67;6.07;;;10.00;99.90;;;;;;5009436;28;20217;-84
2022/04/06 01:39:40;;;;;;;7.50;6.80;;;10.10;99.90;;;;;;5007915;28;20201;-85
2022/04/06 01:42:08;;;;;;;6.83;6.20;;;10.20;99.90;;;;;;5011376;28;20204;-85
2022/04/06 01:44:34;;;;;;;7.23;6.53;;;10.20;99.90;;;;;;5009040;28;20210;-85
2022/04/06 01:47:00;;;;;;;7.43;6.80;;;10.20;99.90;;;;;;5007210;28;20221;-85
2022/04/06 01:52:15;;;;;;;7.43;6.73;;;10.30;99.90;;;;;;5010801;28;20193;-85
2022/04/06 01:54:49;;;;;;;7.80;7.00;;;10.20;99.90;;;;;;5005473;28;20647;-84
2022/04/06 01:57:16;;;;;;;7.10;6.50;;;10.10;99.90;;;;;;5010114;28;20299;-84
2022/04/06 01:59:43;;;;;;;8.13;6.60;;;10.20;99.90;;;;;;5009602;28;20608;-85
2022/04/06 02:02:10;;;;;;;7.20;6.50;;;10.20;99.90;;;;;;5005145;28;20190;-84
2022/04/06 02:04:37;;;;;;;8.40;7.10;;;10.10;99.90;;;;;;5009595;28;20197;-85
2022/04/06 02:07:04;;;;;;;8.27;7.47;;;10.00;99.90;;;;;;5008044;28;20661;-85
2022/04/06 02:09:29;;;;;;;8.07;7.27;;;10.10;99.90;;;;;;5015096;28;20205;-86
2022/04/06 02:11:55;;;;;;;7.20;6.50;;;10.00;99.90;;;;;;5015823;28;20190;-82
2022/04/06 02:14:22;;;;;;;7.17;6.47;;;10.10;99.90;;;;;;5025549;28;20201;-83
2022/04/06 02:16:48;;;;;;;7.63;7.03;;;10.00;99.90;;;;;;5027679;28;20225;-85
2022/04/06 02:19:14;;;;;;;9.23;7.90;;;10.10;99.90;;;;;;5008547;28;20190;-85
2022/04/06 02:21:40;;;;;;;7.63;6.93;;;10.00;99.90;;;;;;5007780;28;20197;-85
2022/04/06 02:24:06;;;;;;;7.83;7.10;;;9.90;99.90;;;;;;5010400;28;20197;-85
2022/04/06 02:26:31;;;;;;;7.47;6.87;;;10.00;99.90;;;;;;5020059;28;20675;-85
2022/04/06 02:28:59;;;;;;;7.00;6.40;;;9.90;99.90;;;;;;5008253;28;20206;-83
2022/04/06 02:31:25;;;;;;;7.30;6.67;;;10.00;99.90;;;;;;5012097;28;20196;-85
2022/04/06 02:33:51;;;;;;;6.77;6.17;;;10.00;99.90;;;;;;5007785;28;20249;-85
2022/04/06 02:36:17;;;;;;;6.87;6.30;;;10.00;99.90;;;;;;5013966;28;20284;-85
2022/04/06 02:38:44;;;;;;;7.70;7.00;;;10.10;99.90;;;;;;5008337;28;20225;-85
2022/04/06 02:41:10;;;;;;;8.57;7.30;;;10.00;99.90;;;;;;5010033;28;20244;-85
2022/04/06 02:43:36;;;;;;;7.60;6.83;;;10.00;99.90;;;;;;5006464;28;20221;-85
2022/04/06 02:46:02;;;;;;;6.43;5.80;;;10.00;99.90;;;;;;5009248;28;20185;-85
2022/04/06 02:48:28;;;;;;;7.23;6.60;;;10.00;99.90;;;;;;5010223;28;20275;-83
2022/04/06 02:50:54;;;;;;;7.37;6.67;;;9.90;99.90;;;;;;5018197;28;20192;-84
2022/04/06 02:53:20;;;;;;;7.27;6.20;;;10.00;99.90;;;;;;5009967;28;20185;-84
2022/04/06 02:55:46;;;;;;;7.03;6.37;;;10.10;99.90;;;;;;5005424;28;20224;-83
2022/04/06 02:58:12;;;;;;;6.70;6.10;;;10.10;99.90;;;;;;5009395;28;20217;-85
2022/04/06 03:00:37;;;;;;;6.53;5.93;;;10.10;99.90;;;;;;5004483;28;20190;-85
2022/04/06 03:03:03;;;;;;;7.90;6.17;;;10.10;99.90;;;;;;5009635;28;20186;-84
2022/04/06 03:05:29;;;;;;;6.97;5.97;;;10.10;99.90;;;;;;5013464;28;20189;-85
2022/04/06 03:07:55;;;;;;;6.83;6.23;;;10.10;99.90;;;;;;5015981;28;20263;-83
2022/04/06 03:10:20;;;;;;;7.10;6.50;;;10.00;99.90;;;;;;5007973;28;20229;-84
2022/04/06 03:12:46;;;;;;;7.23;6.53;;;10.10;99.90;;;;;;5006653;28;20246;-85
2022/04/06 03:15:12;;;;;;;6.60;6.00;;;10.00;99.90;;;;;;5008587;28;20534;-85
2022/04/06 03:17:38;;;;;;;6.47;5.90;;;9.90;99.90;;;;;;5006259;28;20218;-85
2022/04/06 03:20:05;;;;;;;5.97;5.47;;;10.10;99.90;;;;;;5008869;28;20306;-85
2022/04/06 03:22:31;;;;;;;6.73;6.13;;;10.10;99.90;;;;;;5021322;28;20192;-86
2022/04/06 03:24:57;;;;;;;6.33;5.73;;;10.10;99.90;;;;;;5007255;28;20186;-85
2022/04/06 03:27:22;;;;;;;6.23;5.63;;;10.10;99.90;;;;;;5007685;28;20535;-85
2022/04/06 03:29:48;;;;;;;5.90;5.33;;;10.00;99.90;;;;;;5005556;28;20194;-86
2022/04/06 03:32:14;;;;;;;6.80;6.10;;;10.00;99.90;;;;;;5005908;28;20190;-86
2022/04/06 03:34:40;;;;;;;5.87;5.27;;;10.00;99.90;;;;;;5008741;28;20317;-85
2022/04/06 03:37:06;;;;;;;7.00;5.50;;;10.10;99.90;;;;;;5014964;28;20213;-85
2022/04/06 03:39:32;;;;;;;6.67;5.97;;;10.10;99.90;;;;;;5010593;28;20182;-86
2022/04/06 03:41:57;;;;;;;5.60;5.13;;;10.10;99.90;;;;;;5007571;28;20197;-86
2022/04/06 03:44:23;;;;;;;6.10;5.60;;;10.20;99.90;;;;;;5012857;28;20185;-85
2022/04/06 03:46:49;;;;;;;5.80;5.33;;;10.10;99.90;;;;;;5004493;28;20190;-85
2022/04/06 03:49:14;;;;;;;6.70;5.53;;;10.10;99.90;;;;;;5007281;28;21131;-86
2022/04/06 03:51:40;;;;;;;5.77;5.27;;;10.00;99.90;;;;;;5015249;28;20665;-85
2022/04/06 03:54:06;;;;;;;5.70;4.83;;;10.00;99.90;;;;;;5007854;28;20209;-84
2022/04/06 03:56:32;;;;;;;6.57;4.80;;;10.00;99.90;;;;;;5014416;28;20189;-86
2022/04/06 03:58:58;;;;;;;5.50;5.03;;;10.10;99.90;;;;;;5011455;28;20209;-85
2022/04/06 04:01:24;;;;;;;6.23;5.63;;;10.20;99.90;;;;;;5012584;28;20567;-85
2022/04/06 04:03:50;;;;;;;5.37;4.97;;;10.20;99.90;;;;;;5006530;28;20257;-85
2022/04/06 04:06:16;;;;;;;5.83;5.33;;;10.20;99.90;;;;;;5005039;28;20202;-85
2022/04/06 04:08:41;;;;;;;5.30;4.80;;;10.20;99.90;;;;;;5012221;28;20213;-86
2022/04/06 04:11:08;;;;;;;6.67;4.93;;;10.20;99.90;;;;;;5004941;28;20224;-85
2022/04/06 04:13:34;;;;;;;5.17;4.77;;;10.10;99.90;;;;;;5004945;28;20190;-84
2022/04/06 04:15:59;;;;;;;6.10;5.40;;;10.20;99.90;;;;;;5009888;28;20216;-85
2022/04/06 04:18:25;;;;;;;5.57;5.07;;;10.00;99.90;;;;;;5011417;28;20820;-85
2022/04/06 04:21:31;;;;;;;5.73;5.13;;;10.00;99.90;;;;;;5011592;28;20286;-84
2022/04/06 04:23:37;;;;;;;5.77;5.23;;;10.10;99.90;;;;;;5007510;28;20204;-85
2022/04/06 04:26:02;;;;;;;5.97;5.43;;;10.20;99.90;;;;;;5007831;28;20273;-85
2022/04/06 04:28:28;;;;;;;5.30;4.90;;;10.20;99.90;;;;;;5008112;28;20220;-86
2022/04/06 04:30:53;;;;;;;5.20;4.80;;;10.10;99.90;;;;;;5005996;28;20261;-85
2022/04/06 04:33:19;;;;;;;5.23;4.83;;;10.10;99.90;;;;;;5008389;28;20189;-85
2022/04/06 04:35:45;;;;;;;5.80;5.27;;;10.10;99.90;;;;;;5008194;28;20251;-85
2022/04/06 04:38:11;;;;;;;5.90;5.30;;;10.10;99.90;;;;;;5012437;28;20240;-86
2022/04/06 04:40:37;;;;;;;5.17;4.77;;;10.10;99.90;;;;;;5010137;28;20324;-87
2022/04/06 04:43:03;;;;;;;6.10;5.57;;;10.10;99.90;;;;;;5011183;28;20252;-86
2022/04/06 04:45:29;;;;;;;6.63;5.53;;;10.20;99.90;;;;;;5010052;28;20210;-84
2022/04/06 04:47:54;;;;;;;6.03;5.50;;;10.10;99.90;;;;;;5000696;28;20249;-88
2022/04/06 04:50:20;;;;;;;6.03;5.53;;;10.00;99.90;;;;;;5000490;28;20278;-87
2022/04/06 04:52:46;;;;;;;6.13;5.53;;;10.20;99.90;;;;;;5004167;28;20661;-86
2022/04/06 04:55:12;;;;;;;6.67;6.07;;;10.00;99.90;;;;;;5006331;28;20645;-85
2022/04/06 04:57:37;;;;;;;7.47;5.67;;;10.00;99.90;;;;;;5001285;28;20226;-86
2022/04/06 05:00:08;;;;;;;6.10;5.50;;;10.00;99.90;;;;;;5007501;28;20690;-86
2022/04/06 05:02:36;;;;;;;5.40;4.97;;;10.00;99.90;;;;;;5011664;28;20196;-86
2022/04/06 05:05:03;;;;;;;6.70;5.70;;;10.20;99.90;;;;;;5002605;28;20202;-85
2022/04/06 05:07:28;;;;;;;6.50;5.90;;;10.10;99.90;;;;;;5008040;28;20206;-86
2022/04/06 05:09:54;;;;;;;6.27;5.77;;;10.10;99.90;;;;;;5005329;28;20580;-85
2022/04/06 05:12:20;;;;;;;6.00;5.50;;;10.00;99.90;;;;;;5005944;28;20304;-86
2022/04/06 05:14:46;;;;;;;6.70;6.10;;;10.00;99.90;;;;;;5023692;28;20196;-84
2022/04/06 05:17:12;;;;;;;6.47;5.97;;;9.90;99.90;;;;;;5013533;28;20836;-86
2022/04/06 05:19:38;;;;;;;6.33;5.83;;;9.90;99.90;;;;;;5009785;28;20181;-86
2022/04/06 05:22:04;;;;;;;5.83;5.33;;;10.10;99.90;;;;;;5013112;28;20194;-86
2022/04/06 05:24:30;;;;;;;6.07;5.47;;;10.20;99.90;;;;;;5020570;28;20193;-85
2022/04/06 05:26:56;;;;;;;6.70;6.10;;;10.10;99.90;;;;;;5012467;28;20201;-86
2022/04/06 05:29:21;;;;;;;7.93;6.40;;;10.10;99.90;;;;;;5008102;28;20205;-86
2022/04/06 05:31:47;;;;;;;6.20;5.70;;;10.00;99.90;;;;;;5011678;28;20673;-85
2022/04/06 05:34:13;;;;;;;7.03;6.33;;;10.10;99.90;;;;;;5012366;28;20233;-87
2022/04/06 05:36:38;;;;;;;8.07;5.53;;;10.10;99.90;;;;;;5013471;28;20217;-87
2022/04/06 05:39:04;;;;;;;6.17;5.67;;;10.10;99.90;;;;;;5009312;28;20249;-87
2022/04/06 05:41:30;;;;;;;6.00;5.50;;;10.20;99.90;;;;;;5012667;28;20284;-86
2022/04/06 05:43:56;;;;;;;6.43;5.73;;;10.10;99.90;;;;;;5013229;28;20228;-85
2022/04/06 05:46:21;;;;;;;7.03;6.43;;;10.10;99.90;;;;;;5018774;28;20194;-86
2022/04/06 05:48:47;;;;;;;6.30;4.90;;;10.20;99.90;;;;;;5014162;28;20229;-86
2022/04/06 05:51:13;;;;;;;7.73;5.40;;;10.20;99.90;;;;;;5016596;28;20248;-86
2022/04/06 05:53:39;;;;;;;5.47;4.97;;;10.30;99.90;;;;;;5015487;28;20570;-86
2022/04/06 05:56:05;;;;;;;5.43;5.00;;;10.20;99.90;;;;;;5009747;28;20189;-86
2022/04/06 05:58:30;;;;;;;5.97;5.30;;;10.30;99.90;;;;;;5012516;28;20277;-85
2022/04/06 06:00:56;;;;;;;7.73;5.00;;;10.20;99.90;;;;;;5023075;28;20403;-85
2022/04/06 06:03:22;;;;;;;5.20;4.70;;;10.30;99.90;;;;;;5024692;28;20302;-86
2022/04/06 06:05:47;;;;;;;5.57;4.37;;;10.30;99.90;;;;;;5014706;28;20196;-87
2022/04/06 06:08:13;;;;;;;5.77;4.70;;;10.30;99.90;;;;;;5026547;28;20238;-86
2022/04/06 06:10:39;;;;;;;5.10;4.60;;;10.20;99.90;;;;;;5029910;28;20213;-86
2022/04/06 06:13:04;;;;;;;5.37;4.73;;;10.20;99.90;;;;;;5020052;28;20217;-86
2022/04/06 06:15:30;;;;;;;4.60;4.20;;;10.20;99.90;;;;;;5016604;28;20220;-84
2022/04/06 06:17:56;;;;;;;4.97;3.50;;;10.30;99.90;;;;;;5014553;28;20231;-86
2022/04/06 06:20:21;;;;;;;4.20;3.83;;;10.30;99.90;;;;;;5019746;28;20205;-86
2022/04/06 06:22:47;;;;;;;3.90;3.53;;;10.30;99.90;;;;;;5018113;28;20304;-85
2022/04/06 06:25:13;;;;;;;3.97;3.60;;;10.30;99.90;;;;;;5013955;28;20195;-85
2022/04/06 06:27:42;;;;;;;5.23;3.87;;;10.30;99.90;;;;;;5018532;28;20206;-86
2022/04/06 06:30:11;;;;;;;4.40;4.00;;;10.40;99.90;;;;;;5013247;28;20232;-86
2022/04/06 06:32:37;;;;;;;4.70;3.97;;;10.40;99.90;;;;;;5013150;28;20182;-84
2022/04/06 06:35:03;;;;;;;6.07;4.10;;;10.40;99.90;;;;;;5017964;28;20204;-86
2022/04/06 06:37:29;;;;;;;4.33;3.93;;;10.50;99.90;;;;;;5021651;28;20244;-86
2022/04/06 06:39:54;;;;;;;4.70;4.20;;;10.50;99.90;;;;;;5016842;28;20220;-86
2022/04/06 06:42:24;;;;;;;4.10;3.57;;;10.50;99.90;;;;;;5011620;28;20191;-86
2022/04/06 06:44:50;;;;;;;6.00;4.00;;;10.60;99.90;;;;;;4998148;28;20217;-85
2022/04/06 06:47:15;;;;;;;5.13;3.47;;;10.60;99.90;;;;;;5014246;28;20198;-83
2022/04/06 06:49:46;;;;;;;6.30;3.87;;;10.60;99.90;;;;;;5029447;28;20193;-83
2022/04/06 06:52:15;;;;;;;4.93;4.20;;;10.60;99.90;;;;;;5025103;28;20186;-84
2022/04/06 06:54:41;;;;;;;4.00;3.60;;;10.60;99.90;;;;;;5032096;28;20190;-83
2022/04/06 06:57:06;;;;;;;4.10;3.70;;;10.60;99.90;;;;;;5036770;28;20204;-86
2022/04/06 06:59:32;;;;;;;4.00;3.63;;;10.70;99.90;;;;;;5013831;28;20288;-86
2022/04/06 07:01:58;;;;;;;3.70;3.10;;;10.70;99.90;;;;;;5014211;28;20197;-86
2022/04/06 07:04:24;;;;;;;5.93;3.60;;;10.80;99.90;;;;;;5013972;28;20190;-85
2022/04/06 07:06:50;;;;;;;4.20;3.80;;;10.90;99.90;;;;;;5025020;28;20223;-86
2022/04/06 07:09:17;;;;;;;5.53;3.40;;;11.00;99.90;;;;;;5018454;28;20186;-86
2022/04/06 07:11:42;;;;;;;4.57;3.50;;;10.90;99.90;;;;;;5013469;28;20189;-86
2022/04/06 07:14:08;;;;;;;7.30;3.20;;;11.00;99.40;;;;;;5013988;28;20193;-87
2022/04/06 07:16:34;;;;;;;5.97;3.60;;;11.20;98.50;;;;;;5013910;28;20280;-87
2022/04/06 07:19:00;;;;;;;3.73;3.43;;;11.20;98.50;;;;;;5014592;28;20209;-87
2022/04/06 07:21:26;;;;;;;3.80;3.50;;;11.20;99.00;;;;;;5014693;28;20213;-87
2022/04/06 07:23:53;;;;;;;4.57;4.17;;;11.10;99.90;;;;;;5013345;28;20193;-87
2022/04/06 07:26:19;;;;;;;4.83;4.43;;;11.00;99.90;;;;;;5014409;28;20308;-87
2022/04/06 07:28:45;;;;;;;5.07;4.57;;;10.90;99.90;;;;;;5016340;28;20337;-86
2022/04/06 07:31:11;;;;;;;5.13;4.50;;;10.90;99.90;;;;;;5010755;28;20732;-84
2022/04/06 07:33:38;;;;;;;6.00;5.20;;;11.00;99.90;;;;;;4998615;28;20190;-87
2022/04/06 07:36:09;;;;;;;5.70;5.20;;;10.90;99.90;;;;;;5011474;28;20189;-87
2022/04/06 07:38:35;;;;;;;5.87;5.07;;;10.90;99.90;;;;;;5007041;28;20721;-85
2022/04/06 07:41:01;;;;;;;5.20;4.70;;;11.00;99.90;;;;;;5006532;28;20202;-85
2022/04/06 07:43:27;;;;;;;6.40;4.60;;;11.00;99.90;;;;;;5006645;28;20192;-86
2022/04/06 07:45:53;;;;;;;5.43;4.93;;;11.00;99.90;;;;;;5005047;28;20592;-84
2022/04/06 07:48:19;;;;;;;5.33;4.83;;;11.10;99.90;;;;;;5005652;28;20251;-85
2022/04/06 07:50:45;;;;;;;5.37;4.80;;;11.20;99.90;;;;;;5009986;28;20236;-87
2022/04/06 07:53:11;;;;;;;4.90;4.40;;;11.30;99.90;;;;;;5014923;28;20285;-85
2022/04/06 07:55:37;;;;;;;4.80;4.37;;;11.30;99.50;;;;;;5008576;28;20190;-85
2022/04/06 07:58:03;;;;;;;4.90;4.50;;;11.20;99.30;;;;;;5013281;28;20219;-85
2022/04/06 08:00:33;;;;;;;4.97;4.47;;;11.30;99.90;;;;;;5011001;28;20190;-88
2022/04/06 08:03:00;;;;;;;5.03;4.63;;;11.20;99.90;;;;;;5013171;28;20224;-86
2022/04/06 08:05:25;;;;;;;6.07;4.93;;;11.40;99.80;;;;;;5016929;28;20201;-84
2022/04/06 08:07:53;;;;;;;5.73;5.03;;;11.60;98.90;;;;;;5007677;28;20221;-85
2022/04/06 08:10:21;;;;;;;5.10;4.60;;;11.70;97.30;;;;;;5011025;28;20712;-85
2022/04/06 08:12:47;;;;;;;4.57;4.17;;;11.70;97.20;;;;;;5003783;28;20293;-86
2022/04/06 08:15:14;;;;;;;4.70;4.30;;;11.60;98.50;;;;;;5008022;28;20205;-86
2022/04/06 08:17:43;;;;;;;4.67;3.70;;;11.60;97.20;;;;;;5007907;28;20749;-84
2022/04/06 08:20:11;;;;;;;4.90;4.00;;;11.70;97.20;;;;;;5010380;28;20281;-85
2022/04/06 08:22:37;;;;;;;4.57;4.20;;;11.60;98.50;;;;;;5008517;28;20188;-86
2022/04/06 08:25:04;;;;;;;4.57;3.80;;;11.80;96.00;;;;;;5005069;28;20237;-85
2022/04/06 08:27:31;;;;;;;3.73;3.43;;;11.80;95.00;;;;;;5005398;28;20213;-86
2022/04/06 08:29:57;;;;;;;3.80;3.50;;;11.70;96.80;;;;;;5006771;28;20186;-86
2022/04/06 08:32:23;;;;;;;4.37;3.60;;;11.60;94.60;;;;;;5006220;28;20317;-86
2022/04/06 08:34:48;;;;;;;3.53;3.23;;;11.70;94.00;;;;;;5015459;28;20235;-85
2022/04/06 08:37:14;;;;;;;4.27;3.87;;;11.80;92.90;;;;;;5012998;28;20225;-87
2022/04/06 08:39:40;;;;;;;5.63;3.63;;;11.80;93.80;;;;;;5006652;28;20308;-86
2022/04/06 08:42:06;;;;;;;3.63;3.33;;;11.80;94.40;;;;;;5013212;28;20200;-86
2022/04/06 08:44:32;;;;;;;3.50;3.20;;;11.70;95.20;;;;;;5013807;28;20197;-82
2022/04/06 08:47:04;;;;;;;4.37;3.50;;;11.60;94.90;;;;;;5008599;28;20197;-84
2022/04/06 08:49:30;;;;;;;3.87;3.30;;;11.80;94.90;;;;;;5008173;28;20193;-82
2022/04/06 08:51:56;;;;;;;4.30;3.90;;;11.70;95.50;;;;;;5015948;28;20205;-83
2022/04/06 08:54:23;;;;;;;5.97;5.43;;;11.80;95.90;;;;;;5016014;28;20628;-85
2022/04/06 08:56:49;;;;;;;3.67;3.23;;;11.80;95.20;;;;;;5009741;28;20237;-85
2022/04/06 08:59:14;;;;;;;4.47;3.13;;;11.80;95.90;;;;;;5009091;28;20202;-86
2022/04/06 09:01:40;;;;;;;3.93;3.53;;;11.90;95.30;;;;;;5014404;28;20209;-85
2022/04/06 09:04:06;;;;;;;4.37;3.13;;;11.80;96.10;;;;;;5007963;28;20196;-85
2022/04/06 09:06:40;;;;;;;3.87;3.53;;;11.90;95.40;;;;;;5004970;28;20572;-84
2022/04/06 09:09:07;;;;;;;3.57;3.27;;;12.00;95.60;;;;;;5011903;28;20210;-85
2022/04/06 09:11:42;;;;;;;4.13;3.73;;;11.90;96.50;;;;;;5009624;28;20224;-85
2022/04/06 09:14:07;;;;;;;4.47;3.50;;;12.00;93.80;;;;;;5008518;28;20204;-85
2022/04/06 09:16:33;;;;;;;3.57;3.27;;;12.00;93.30;;;;;;5003977;28;20331;-84
2022/04/06 09:19:10;;;;;;;3.60;3.10;;;12.10;89.70;;;;;;5004138;28;20214;-85
2022/04/06 09:21:40;;;;;;;3.50;3.07;;;12.00;88.10;;;;;;5006963;28;20185;-85
2022/04/06 09:24:12;;;;;;;4.20;3.23;;;12.00;88.00;;;;;;5009264;28;20643;-85
2022/04/06 09:26:38;;;;;;;5.50;3.30;;;12.00;88.10;;;;;;5011989;28;20198;-85
2022/04/06 09:29:03;;;;;;;3.20;2.90;;;12.00;88.70;;;;;;5012812;28;20225;-85
2022/04/06 09:31:38;;;;;;;3.70;3.33;;;12.20;88.00;;;;;;5009981;28;20200;-85
2022/04/06 09:34:04;;;;;;;5.80;5.30;;;12.40;90.80;;;;;;5007594;28;20240;-85
2022/04/06 09:36:32;;;;;;;4.50;4.10;;;12.60;90.90;;;;;;5011205;28;20226;-85
2022/04/06 09:38:58;;;;;;;9.57;7.97;;;12.70;91.40;;;;;;5008154;28;20279;-86
2022/04/06 09:41:25;;;;;;;8.93;8.13;;;12.80;90.20;;;;;;5004369;28;20618;-85
2022/04/06 09:43:52;;;;;;;5.13;4.57;;;12.80;89.20;;;;;;5013198;28;20575;-85
2022/04/06 09:49:20;;;;;;;4.30;3.90;;;12.80;89.80;;;;;;5017982;28;20219;-85
2022/04/06 09:51:50;;;;;;;13.87;12.47;;;12.80;90.20;;;;;;5016716;28;20197;-85
2022/04/06 09:54:17;;;;;;;5.43;4.10;;;13.10;88.20;;;;;;5016950;28;20207;-83
2022/04/06 09:56:44;;;;;;;5.30;4.87;;;13.10;85.90;;;;;;5026827;28;20675;-84
2022/04/06 09:59:12;;;;;;;11.63;10.63;;;13.10;87.20;;;;;;5014364;28;20206;-85
2022/04/06 10:01:46;;;;;;;3.50;3.20;;;13.30;85.10;;;;;;5013924;28;20202;-84
2022/04/06 10:04:13;;;;;;;4.50;4.10;;;13.30;84.50;;;;;;5012666;28;20187;-86
2022/04/06 10:06:40;;;;;;;4.67;4.20;;;13.40;86.20;;;;;;5010297;28;20476;-86
2022/04/06 10:09:09;;;;;;;4.27;3.43;;;13.50;81.70;;;;;;5020841;28;20226;-84
2022/04/06 10:11:37;;;;;;;3.57;3.27;;;13.20;83.00;;;;;;5016797;28;20669;-85
2022/04/06 10:14:04;;;;;;;3.93;3.63;;;13.30;82.50;;;;;;5009462;28;20239;-86
2022/04/06 10:16:31;;;;;;;3.80;3.50;;;13.40;81.20;;;;;;5019303;28;20191;-85
2022/04/06 10:18:58;;;;;;;3.50;3.10;;;13.40;83.40;;;;;;5018187;28;20228;-84
2022/04/06 10:21:28;;;;;;;3.30;2.97;;;13.40;80.90;;;;;;5013580;28;20319;-84
2022/04/06 10:24:16;;;;;;;3.70;3.40;;;13.40;80.30;;;;;;5013714;28;20193;-84
2022/04/06 10:27:21;;;;;;;3.87;3.57;;;13.60;78.50;;;;;;5014579;28;20185;-84
2022/04/06 10:30:23;;;;;;;3.67;3.37;;;13.70;78.90;;;;;;5010462;28;20180;-83
2022/04/06 10:32:51;;;;;;;3.97;3.50;;;13.60;79.30;;;;;;4986617;28;20203;-83
2022/04/06 10:35:20;;;;;;;3.73;3.43;;;13.50;80.30;;;;;;5010688;28;20209;-84
2022/04/06 10:37:52;;;;;;;4.17;3.73;;;13.50;79.90;;;;;;5010813;28;20225;-84
2022/04/06 10:40:18;;;;;;;4.07;3.70;;;13.50;81.10;;;;;;5013257;28;20249;-84
2022/04/06 10:42:45;;;;;;;5.03;4.57;;;13.60;81.60;;;;;;5019938;28;20184;-84
2022/04/06 10:45:29;;;;;;;5.50;4.50;;;13.50;83.10;;;;;;5019215;28;20223;-84
2022/04/06 10:48:20;;;;;;;5.37;4.87;;;13.60;82.70;;;;;;5014032;28;20216;-84
2022/04/06 10:50:47;;;;;;;3.50;3.23;;;13.50;80.80;;;;;;5016972;28;20193;-84
2022/04/06 10:53:19;;;;;;;3.10;2.80;;;13.50;78.30;;;;;;5014287;28;20200;-84
2022/04/06 10:56:13;;;;;;;3.10;2.90;;;13.70;76.70;;;;;;5015597;28;20189;-84
2022/04/06 10:58:57;;;;;;;3.77;3.47;;;13.90;75.80;;;;;;5020368;28;20743;-85
2022/04/06 11:01:29;;;;;;;3.10;2.73;;;14.80;71.70;;;;;;5021220;28;20289;-84
2022/04/06 11:04:25;;;;;;;3.10;2.60;;;15.20;68.30;;;;;;5010329;28;20189;-84
2022/04/06 11:06:57;;;;;;;4.10;3.77;;;15.20;69.00;;;;;;5012406;28;20227;-83
2022/04/06 11:12:18;;;;;;;4.43;4.03;;;14.80;71.10;;;;;;5011756;28;20562;-86
2022/04/06 11:14:49;;;;;;;4.87;4.30;;;14.50;73.70;;;;;;5022020;28;20197;-83
2022/04/06 11:17:42;;;;;;;5.00;4.50;;;14.30;72.00;;;;;;5013564;28;20229;-85
2022/04/06 11:20:13;;;;;;;4.10;3.70;;;14.30;71.70;;;;;;5016283;28;20180;-84
2022/04/06 11:22:44;;;;;;;4.70;4.23;;;14.30;69.40;;;;;;5019788;28;20188;-84
2022/04/06 11:25:20;;;;;;;5.03;4.17;;;14.50;72.00;;;;;;5014094;28;20181;-84
2022/04/06 11:27:46;;;;;;;3.90;3.50;;;14.80;69.60;;;;;;5022008;28;20218;-84
2022/04/06 11:30:13;;;;;;;4.30;3.47;;;14.90;67.50;;;;;;5018279;28;20212;-84
2022/04/06 11:32:42;;;;;;;3.43;3.13;;;15.00;67.90;;;;;;5020864;28;20195;-85
2022/04/06 11:35:12;;;;;;;3.83;3.53;;;14.90;65.20;;;;;;5016979;28;20223;-84
2022/04/06 11:37:50;;;;;;;3.10;2.70;;;14.90;66.90;;;;;;5019509;28;20248;-84
2022/04/06 11:40:18;;;;;;;2.80;2.60;;;15.00;66.10;;;;;;5022148;28;20638;-84
2022/04/06 11:42:48;;;;;;;4.33;3.30;;;15.40;66.00;;;;;;5016429;28;20661;-84
2022/04/06 11:45:20;;;;;;;4.60;3.10;;;15.70;65.30;;;;;;5022854;28;20185;-85
2022/04/06 11:47:54;;;;;;;2.70;2.50;;;16.00;61.10;;;;;;5027159;28;20263;-85
2022/04/06 11:50:21;;;;;;;6.60;3.37;;;15.90;60.60;;;;;;5024729;28;20182;-85
2022/04/06 11:52:48;;;;;;;4.33;3.00;;;16.10;62.80;;;;;;5020384;28;20280;-84
2022/04/06 11:55:13;;;;;;;2.60;2.40;;;16.90;59.70;;;;;;5012963;28;20247;-84
2022/04/06 11:57:45;;;;;;;3.60;2.20;;;16.60;59.60;;;;;;5022863;28;20299;-84
2022/04/06 12:00:13;;;;;;;2.60;2.40;;;16.50;59.50;;;;;;5013903;28;20253;-84
2022/04/06 12:02:52;;;;;;;2.70;2.50;;;16.80;58.10;;;;;;5013993;28;20213;-84
2022/04/06 12:05:19;;;;;;;2.40;2.20;;;16.90;59.00;;;;;;5019056;28;20193;-84
2022/04/06 12:07:45;;;;;;;4.60;2.40;;;16.90;54.00;;;;;;5024737;28;20690;-84
2022/04/06 12:10:12;;;;;;;3.57;2.60;;;16.50;54.70;;;;;;5016817;28;20200;-84
2022/04/06 12:12:38;;;;;;;3.80;3.50;;;16.00;57.30;;;;;;5015192;28;20198;-84
2022/04/06 12:15:05;;;;;;;3.90;3.53;;;15.60;60.50;;;;;;5015657;28;20197;-84
2022/04/06 12:17:36;;;;;;;4.07;3.53;;;15.50;62.20;;;;;;5020117;28;20225;-85
2022/04/06 12:20:24;;;;;;;6.10;3.70;;;15.60;62.50;;;;;;5014282;28;20182;-85
2022/04/06 12:23:03;;;;;;;7.87;4.10;;;16.00;61.20;;;;;;5008887;28;20180;-85
2022/04/06 12:25:33;;;;;;;5.70;3.53;;;16.20;59.40;;;;;;5014493;28;20235;-84
2022/04/06 12:28:29;;;;;;;3.90;3.60;;;16.10;58.70;;;;;;5009861;28;20432;-84
2022/04/06 12:31:08;;;;;;;4.27;3.87;;;15.80;60.20;;;;;;5007119;28;20218;-84
2022/04/06 12:33:50;;;;;;;4.70;3.50;;;15.50;59.80;;;;;;5013211;28;20190;-84
2022/04/06 12:36:35;;;;;;;4.00;3.60;;;15.50;60.00;;;;;;5018892;28;20221;-85
2022/04/06 12:39:08;;;;;;;4.60;4.20;;;15.50;61.10;;;;;;5009090;28;20221;-85
2022/04/06 12:41:50;;;;;;;3.73;2.90;;;15.60;59.70;;;;;;5012899;28;20173;-85
2022/04/06 12:44:16;;;;;;;4.40;3.17;;;15.60;60.50;;;;;;5026289;28;20756;-84
2022/04/06 12:46:44;;;;;;;3.63;2.60;;;15.60;58.70;;;;;;5021600;28;20195;-84
2022/04/06 12:49:24;;;;;;;4.13;2.90;;;15.50;59.00;;;;;;5014876;28;20209;-84
2022/04/06 12:52:15;;;;;;;5.27;4.73;;;15.50;60.30;;;;;;5016506;28;20189;-85
2022/04/06 12:54:46;;;;;;;7.03;4.30;;;15.70;63.00;;;;;;5015169;28;20243;-85
2022/04/06 12:57:27;;;;;;;5.33;4.83;;;16.30;63.00;;;;;;5015724;28;20204;-85
2022/04/06 12:59:57;;;;;;;6.57;5.97;;;16.00;62.00;;;;;;5010360;28;20189;-86
2022/04/06 13:02:26;;;;;;;6.83;5.77;;;17.10;60.70;;;;;;5020532;28;20190;-86